createdAt,value
2023-03-30T00:00:02.506Z,0.00
2023-03-30T00:01:03.260Z,0.00
2023-03-30T00:02:02.531Z,0.00
2023-03-30T00:03:03.179Z,0.00
2023-03-30T00:04:03.791Z,4.00
2023-03-30T00:05:02.702Z,0.00
2023-03-30T00:06:02.951Z,0.00
2023-03-30T00:07:02.911Z,4.00
2023-03-30T00:08:02.696Z,0.00
2023-03-30T00:09:02.895Z,0.00
2023-03-30T00:10:02.765Z,4.00
2023-03-30T00:11:03.737Z,0.00
2023-03-30T00:12:02.835Z,4.00
2023-03-30T00:13:02.140Z,4.00
2023-03-30T00:14:02.819Z,4.00
2023-03-30T00:15:02.819Z,4.00
2023-03-30T00:16:02.540Z,4.00
2023-03-30T00:17:02.798Z,4.00
2023-03-30T00:18:02.783Z,4.00
2023-03-30T00:19:02.145Z,0.00
2023-03-30T00:20:03.512Z,0.00
2023-03-30T00:21:02.306Z,0.00
2023-03-30T00:22:02.694Z,0.00
2023-03-30T00:23:02.708Z,0.00
2023-03-30T00:24:03.428Z,0.00
2023-03-30T00:25:02.717Z,0.00
2023-03-30T00:26:03.377Z,0.00
2023-03-30T00:27:02.629Z,0.00
2023-03-30T00:28:03.346Z,0.00
2023-03-30T00:29:03.288Z,0.00
2023-03-30T00:30:03.328Z,0.00
2023-03-30T00:31:02.968Z,0.00
2023-03-30T00:32:02.628Z,0.00
2023-03-30T00:33:02.606Z,4.00
2023-03-30T00:34:03.272Z,0.00
2023-03-30T00:35:02.536Z,0.00
2023-03-30T00:36:02.553Z,4.00
2023-03-30T00:37:02.478Z,4.00
2023-03-30T00:38:03.168Z,4.00
2023-03-30T00:39:03.163Z,0.00
2023-03-30T00:40:02.461Z,4.00
2023-03-30T00:41:02.670Z,4.00
2023-03-30T00:42:02.404Z,4.00
2023-03-30T00:43:02.415Z,4.00
2023-03-30T00:44:02.414Z,4.00
2023-03-30T00:45:02.638Z,0.00
2023-03-30T00:46:02.451Z,0.00
2023-03-30T00:47:02.349Z,0.00
2023-03-30T00:48:02.377Z,4.00
2023-03-30T00:49:02.343Z,4.00
2023-03-30T00:50:02.318Z,0.00
2023-03-30T00:51:03.378Z,4.00
2023-03-30T00:52:02.294Z,4.00
2023-03-30T00:53:02.253Z,4.00
2023-03-30T00:54:02.270Z,4.00
2023-03-30T00:55:02.313Z,4.00
2023-03-30T00:56:02.237Z,4.00
2023-03-30T00:57:02.254Z,4.00
2023-03-30T00:58:02.195Z,4.00
2023-03-30T00:59:02.190Z,4.00
2023-03-30T01:00:02.190Z,4.00
2023-03-30T01:01:02.478Z,4.00
2023-03-30T01:02:02.864Z,4.00
2023-03-30T01:03:02.254Z,4.00
2023-03-30T01:04:02.804Z,0.00
2023-03-30T01:05:02.112Z,4.00
2023-03-30T01:06:02.105Z,4.00
2023-03-30T01:07:02.136Z,4.00
2023-03-30T01:08:03.544Z,4.00
2023-03-30T01:09:02.746Z,4.00
2023-03-30T01:10:02.042Z,4.00
2023-03-30T01:11:02.319Z,4.00
2023-03-30T01:12:02.018Z,4.00
2023-03-30T01:13:01.987Z,4.00
2023-03-30T01:14:01.554Z,4.00
2023-03-30T01:15:01.968Z,4.00
2023-03-30T01:16:01.983Z,4.00
2023-03-30T01:17:01.956Z,4.00
2023-03-30T01:18:01.934Z,4.00
2023-03-30T01:19:01.923Z,4.00
2023-03-30T01:20:01.297Z,4.00
2023-03-30T01:21:02.005Z,4.00
2023-03-30T01:22:01.322Z,4.00
2023-03-30T01:23:01.148Z,4.00
2023-03-30T01:24:01.285Z,4.00
2023-03-30T01:25:02.512Z,4.00
2023-03-30T01:26:01.869Z,0.00
2023-03-30T01:27:01.853Z,0.00
2023-03-30T01:28:01.099Z,4.00
2023-03-30T01:29:01.761Z,4.00
2023-03-30T01:30:01.818Z,4.00
2023-03-30T01:31:01.970Z,4.00
2023-03-30T01:32:01.782Z,4.00
2023-03-30T01:33:01.775Z,4.00
2023-03-30T01:34:01.706Z,4.00
2023-03-30T01:35:01.734Z,4.00
2023-03-30T01:36:01.730Z,4.00
2023-03-30T01:37:01.910Z,4.00
2023-03-30T01:38:02.327Z,4.00
2023-03-30T01:39:01.618Z,4.00
2023-03-30T01:40:01.645Z,4.00
2023-03-30T01:41:01.847Z,4.00
2023-03-30T01:42:01.608Z,4.00
2023-03-30T01:43:01.614Z,4.00
2023-03-30T01:44:01.566Z,4.00
2023-03-30T01:45:01.605Z,4.00
2023-03-30T01:46:01.563Z,4.00
2023-03-30T01:47:01.661Z,4.00
2023-03-30T01:48:01.580Z,4.00
2023-03-30T01:49:01.487Z,0.00
2023-03-30T01:50:01.558Z,0.00
2023-03-30T01:51:01.635Z,0.00
2023-03-30T01:52:01.471Z,0.00
2023-03-30T01:53:01.447Z,0.00
2023-03-30T01:54:02.167Z,0.00
2023-03-30T01:55:01.442Z,0.00
2023-03-30T01:56:01.397Z,0.00
2023-03-30T01:57:01.423Z,0.00
2023-03-30T01:58:01.396Z,0.00
2023-03-30T01:59:01.383Z,0.00
2023-03-30T02:00:01.359Z,0.00
2023-03-30T02:01:01.518Z,0.00
2023-03-30T02:02:01.348Z,0.00
2023-03-30T02:03:01.381Z,0.00
2023-03-30T02:04:01.322Z,4.00
2023-03-30T02:05:01.321Z,4.00
2023-03-30T02:06:01.954Z,4.00
2023-03-30T02:07:01.263Z,0.00
2023-03-30T02:08:01.247Z,0.00
2023-03-30T02:09:01.195Z,4.00
2023-03-30T02:10:01.223Z,4.00
2023-03-30T02:11:01.283Z,4.00
2023-03-30T02:12:01.179Z,4.00
2023-03-30T02:13:01.183Z,4.00
2023-03-30T02:14:01.131Z,4.00
2023-03-30T02:15:01.139Z,4.00
2023-03-30T02:16:01.182Z,0.00
2023-03-30T02:17:01.845Z,0.00
2023-03-30T02:18:01.819Z,0.00
2023-03-30T02:19:01.062Z,0.00
2023-03-30T02:20:00.500Z,0.00
2023-03-30T02:21:01.119Z,0.00
2023-03-30T02:22:01.037Z,0.00
2023-03-30T02:23:01.027Z,0.00
2023-03-30T02:24:01.004Z,0.00
2023-03-30T02:25:01.002Z,0.00
2023-03-30T02:26:00.759Z,0.00
2023-03-30T02:27:00.969Z,0.00
2023-03-30T02:28:00.830Z,0.00
2023-03-30T02:29:00.991Z,0.00
2023-03-30T02:30:00.936Z,4.00
2023-03-30T02:31:01.081Z,4.00
2023-03-30T02:32:00.996Z,4.00
2023-03-30T02:33:00.931Z,4.00
2023-03-30T02:34:00.864Z,4.00
2023-03-30T02:35:00.840Z,4.00
2023-03-30T02:36:00.880Z,4.00
2023-03-30T02:37:00.849Z,4.00
2023-03-30T02:38:01.551Z,4.00
2023-03-30T02:39:00.819Z,4.00
2023-03-30T02:40:01.438Z,0.00
2023-03-30T02:41:00.911Z,0.00
2023-03-30T02:42:01.492Z,4.00
2023-03-30T02:43:00.757Z,4.00
2023-03-30T02:44:01.503Z,0.00
2023-03-30T02:45:00.700Z,0.00
2023-03-30T02:46:01.492Z,4.00
2023-03-30T02:47:00.705Z,0.00
2023-03-30T02:48:01.466Z,4.00
2023-03-30T02:49:00.683Z,0.00
2023-03-30T02:50:01.406Z,0.00
2023-03-30T02:51:01.432Z,4.00
2023-03-30T02:52:01.311Z,4.00
2023-03-30T02:53:00.619Z,4.00
2023-03-30T02:54:00.609Z,4.00
2023-03-30T02:55:00.569Z,4.00
2023-03-30T02:56:01.273Z,4.00
2023-03-30T02:57:00.607Z,0.00
2023-03-30T02:58:00.553Z,4.00
2023-03-30T02:59:00.536Z,4.00
2023-03-30T03:00:00.515Z,4.00
2023-03-30T03:01:00.559Z,4.00
2023-03-30T03:02:00.784Z,4.00
2023-03-30T03:03:00.542Z,4.00
2023-03-30T03:04:01.192Z,0.00
2023-03-30T03:05:00.431Z,4.00
2023-03-30T03:06:00.457Z,4.00
2023-03-30T03:07:00.461Z,4.00
2023-03-30T03:08:00.414Z,0.00
2023-03-30T03:09:00.408Z,0.00
2023-03-30T03:10:01.106Z,0.00
2023-03-30T03:11:00.356Z,0.00
2023-03-30T03:12:00.358Z,0.00
2023-03-30T03:13:00.342Z,4.00
2023-03-30T03:14:00.317Z,0.00
2023-03-30T03:15:00.299Z,4.00
2023-03-30T03:16:02.831Z,0.00
2023-03-30T03:17:01.012Z,4.00
2023-03-30T03:18:01.001Z,4.00
2023-03-30T03:19:00.934Z,0.00
2023-03-30T03:20:00.226Z,4.00
2023-03-30T03:21:00.194Z,4.00
2023-03-30T03:22:00.231Z,4.00
2023-03-30T03:23:00.198Z,4.00
2023-03-30T03:24:00.179Z,4.00
2023-03-30T03:25:00.191Z,4.00
2023-03-30T03:26:00.132Z,4.00
2023-03-30T03:27:00.867Z,4.00
2023-03-30T03:27:59.911Z,4.00
2023-03-30T03:29:00.139Z,4.00
2023-03-30T03:30:00.794Z,4.00
2023-03-30T03:31:00.162Z,4.00
2023-03-30T03:31:59.904Z,4.00
2023-03-30T03:33:00.117Z,4.00
2023-03-30T03:34:00.048Z,4.00
2023-03-30T03:34:59.906Z,4.00
2023-03-30T03:36:00.061Z,4.00
2023-03-30T03:36:59.789Z,4.00
2023-03-30T03:37:59.916Z,4.00
2023-03-30T03:39:00.641Z,4.00
2023-03-30T03:39:59.263Z,4.00
2023-03-30T03:41:00.649Z,4.00
2023-03-30T03:41:59.930Z,4.00
2023-03-30T03:43:00.597Z,4.00
2023-03-30T03:43:59.910Z,4.00
2023-03-30T03:45:00.603Z,0.00
2023-03-30T03:45:59.994Z,0.00
2023-03-30T03:46:59.865Z,0.00
2023-03-30T03:47:59.901Z,0.00
2023-03-30T03:48:59.851Z,0.00
2023-03-30T03:49:59.819Z,0.00
2023-03-30T03:50:59.792Z,0.00
2023-03-30T03:51:59.795Z,0.00
2023-03-30T03:53:00.465Z,0.00
2023-03-30T03:53:59.764Z,0.00
2023-03-30T03:54:59.755Z,0.00
2023-03-30T03:55:59.719Z,0.00
2023-03-30T03:56:59.740Z,0.00
2023-03-30T03:57:59.953Z,0.00
2023-03-30T03:58:59.739Z,0.00
2023-03-30T03:59:59.808Z,0.00
2023-03-30T04:01:00.010Z,0.00
2023-03-30T04:01:59.699Z,0.00
2023-03-30T04:02:59.681Z,0.00
2023-03-30T04:03:59.629Z,0.00
2023-03-30T04:04:59.709Z,0.00
2023-03-30T04:05:59.588Z,0.00
2023-03-30T04:06:59.810Z,0.00
2023-03-30T04:07:59.574Z,0.00
2023-03-30T04:08:59.566Z,0.00
2023-03-30T04:09:59.580Z,0.00
2023-03-30T04:10:59.506Z,0.00
2023-03-30T04:11:59.519Z,0.00
2023-03-30T04:12:59.495Z,0.00
2023-03-30T04:13:59.492Z,0.00
2023-03-30T04:14:59.491Z,0.00
2023-03-30T04:15:59.482Z,0.00
2023-03-30T04:16:59.459Z,0.00
2023-03-30T04:17:59.541Z,4.00
2023-03-30T04:18:59.417Z,4.00
2023-03-30T04:19:59.396Z,4.00
2023-03-30T04:20:59.378Z,4.00
2023-03-30T04:21:59.390Z,4.00
2023-03-30T04:22:59.357Z,0.00
2023-03-30T04:23:59.355Z,0.00
2023-03-30T04:25:00.007Z,0.00
2023-03-30T04:25:59.309Z,0.00
2023-03-30T04:26:59.316Z,0.00
2023-03-30T04:27:59.283Z,0.00
2023-03-30T04:28:59.319Z,4.00
2023-03-30T04:29:59.273Z,0.00
2023-03-30T04:30:59.256Z,0.00
2023-03-30T04:31:59.295Z,0.00
2023-03-30T04:32:59.938Z,0.00
2023-03-30T04:33:59.230Z,0.00
2023-03-30T04:34:59.195Z,0.00
2023-03-30T04:35:59.206Z,0.00
2023-03-30T04:36:59.181Z,0.00
2023-03-30T04:37:59.151Z,0.00
2023-03-30T04:38:59.158Z,0.00
2023-03-30T04:39:59.139Z,0.00
2023-03-30T04:40:59.094Z,0.00
2023-03-30T04:41:58.876Z,0.00
2023-03-30T04:42:59.090Z,0.00
2023-03-30T04:43:59.073Z,0.00
2023-03-30T04:44:59.117Z,0.00
2023-03-30T04:45:59.108Z,0.00
2023-03-30T04:46:59.028Z,0.00
2023-03-30T04:47:59.714Z,0.00
2023-03-30T04:48:59.015Z,0.00
2023-03-30T04:49:59.024Z,0.00
2023-03-30T04:50:59.966Z,0.00
2023-03-30T04:51:59.686Z,0.00
2023-03-30T04:52:59.655Z,0.00
2023-03-30T04:53:59.644Z,4.00
2023-03-30T04:54:59.638Z,4.00
2023-03-30T04:55:59.647Z,4.00
2023-03-30T04:56:59.676Z,8.00
2023-03-30T04:57:59.599Z,4.00
2023-03-30T04:58:58.875Z,8.00
2023-03-30T04:59:59.573Z,8.00
2023-03-30T05:00:59.594Z,8.00
2023-03-30T05:01:59.581Z,8.00
2023-03-30T05:02:59.659Z,12.00
2023-03-30T05:03:59.518Z,8.00
2023-03-30T05:04:59.001Z,12.00
2023-03-30T05:05:59.485Z,12.00
2023-03-30T05:06:58.729Z,16.00
2023-03-30T05:07:59.417Z,16.00
2023-03-30T05:08:58.739Z,12.00
2023-03-30T05:09:58.716Z,12.00
2023-03-30T05:10:59.408Z,16.00
2023-03-30T05:11:58.672Z,20.00
2023-03-30T05:12:58.663Z,24.00
2023-03-30T05:13:58.650Z,24.00
2023-03-30T05:14:58.668Z,24.00
2023-03-30T05:15:58.630Z,24.00
2023-03-30T05:16:59.378Z,28.00
2023-03-30T05:17:58.638Z,28.00
2023-03-30T05:18:58.653Z,28.00
2023-03-30T05:19:59.253Z,32.00
2023-03-30T05:20:58.616Z,36.00
2023-03-30T05:21:58.518Z,36.00
2023-03-30T05:22:58.565Z,40.00
2023-03-30T05:23:58.538Z,44.00
2023-03-30T05:24:58.501Z,48.00
2023-03-30T05:25:58.514Z,52.00
2023-03-30T05:26:58.452Z,56.00
2023-03-30T05:27:58.455Z,52.00
2023-03-30T05:28:58.448Z,56.00
2023-03-30T05:29:58.458Z,56.00
2023-03-30T05:30:58.440Z,56.00
2023-03-30T05:31:58.381Z,64.00
2023-03-30T05:32:58.460Z,68.00
2023-03-30T05:33:58.372Z,76.00
2023-03-30T05:34:58.362Z,80.00
2023-03-30T05:35:58.462Z,92.00
2023-03-30T05:36:58.303Z,100.00
2023-03-30T05:37:59.009Z,108.00
2023-03-30T05:38:59.032Z,108.00
2023-03-30T05:39:58.045Z,104.00
2023-03-30T05:40:58.050Z,104.00
2023-03-30T05:41:58.964Z,108.00
2023-03-30T05:42:58.011Z,108.00
2023-03-30T05:43:58.015Z,120.00
2023-03-30T05:44:58.000Z,124.00
2023-03-30T05:45:58.231Z,124.00
2023-03-30T05:46:58.178Z,128.00
2023-03-30T05:47:58.277Z,128.00
2023-03-30T05:48:58.168Z,136.00
2023-03-30T05:49:58.169Z,148.00
2023-03-30T05:50:58.974Z,160.00
2023-03-30T05:51:58.089Z,188.00
2023-03-30T05:52:58.026Z,216.00
2023-03-30T05:53:58.015Z,272.00
2023-03-30T05:54:58.016Z,340.00
2023-03-30T05:55:58.790Z,392.00
2023-03-30T05:56:58.090Z,412.00
2023-03-30T05:57:58.042Z,444.00
2023-03-30T05:58:57.327Z,428.00
2023-03-30T05:59:58.000Z,420.00
2023-03-30T06:00:57.993Z,420.00
2023-03-30T06:01:57.266Z,404.00
2023-03-30T06:02:57.347Z,392.00
2023-03-30T06:03:58.162Z,420.00
2023-03-30T06:04:58.038Z,456.00
2023-03-30T06:05:58.601Z,460.00
2023-03-30T06:06:58.138Z,504.00
2023-03-30T06:07:57.880Z,576.00
2023-03-30T06:08:57.883Z,748.00
2023-03-30T06:09:57.860Z,1008.00
2023-03-30T06:10:57.878Z,1124.00
2023-03-30T06:11:57.838Z,1112.00
2023-03-30T06:12:57.800Z,1212.00
2023-03-30T06:13:57.828Z,1444.00
2023-03-30T06:14:57.802Z,1828.00
2023-03-30T06:15:58.092Z,2224.00
2023-03-30T06:16:57.889Z,2388.00
2023-03-30T06:17:58.478Z,2532.00
2023-03-30T06:18:57.739Z,2632.00
2023-03-30T06:19:57.737Z,2720.00
2023-03-30T06:20:57.716Z,2684.00
2023-03-30T06:21:57.015Z,2488.00
2023-03-30T06:22:57.656Z,2232.00
2023-03-30T06:23:57.678Z,2016.00
2023-03-30T06:24:57.033Z,1720.00
2023-03-30T06:25:57.662Z,1296.00
2023-03-30T06:26:56.927Z,992.00
2023-03-30T06:27:57.670Z,844.00
2023-03-30T06:28:57.607Z,764.00
2023-03-30T06:29:57.572Z,728.00
2023-03-30T06:30:57.568Z,760.00
2023-03-30T06:31:57.603Z,992.00
2023-03-30T06:32:58.317Z,1264.00
2023-03-30T06:33:57.539Z,1560.00
2023-03-30T06:34:57.508Z,1800.00
2023-03-30T06:35:57.537Z,1800.00
2023-03-30T06:36:57.499Z,1764.00
2023-03-30T06:37:57.449Z,2036.00
2023-03-30T06:38:57.462Z,2716.00
2023-03-30T06:39:57.448Z,3768.00
2023-03-30T06:40:57.428Z,4472.00
2023-03-30T06:41:57.425Z,4676.00
2023-03-30T06:42:56.691Z,4456.00
2023-03-30T06:43:57.389Z,3772.00
2023-03-30T06:44:57.371Z,3044.00
2023-03-30T06:45:58.124Z,2712.00
2023-03-30T06:46:57.349Z,2604.00
2023-03-30T06:47:57.340Z,2796.00
2023-03-30T06:48:56.612Z,3216.00
2023-03-30T06:49:58.024Z,3556.00
2023-03-30T06:50:56.645Z,3664.00
2023-03-30T06:51:57.215Z,3544.00
2023-03-30T06:52:57.257Z,3000.00
2023-03-30T06:53:57.223Z,2008.00
2023-03-30T06:54:57.247Z,1432.00
2023-03-30T06:55:56.992Z,1200.00
2023-03-30T06:56:57.962Z,1216.00
2023-03-30T06:57:57.003Z,1372.00
2023-03-30T06:58:56.993Z,1580.00
2023-03-30T06:59:57.423Z,1848.00
2023-03-30T07:00:58.110Z,2140.00
2023-03-30T07:01:57.221Z,2476.00
2023-03-30T07:02:57.496Z,2712.00
2023-03-30T07:03:57.182Z,2796.00
2023-03-30T07:04:56.425Z,3184.00
2023-03-30T07:05:57.110Z,3660.00
2023-03-30T07:06:57.002Z,4184.00
2023-03-30T07:07:57.280Z,5140.00
2023-03-30T07:08:57.022Z,6108.00
2023-03-30T07:09:56.313Z,7696.00
2023-03-30T07:10:57.749Z,9884.00
2023-03-30T07:11:56.780Z,10748.00
2023-03-30T07:12:57.712Z,11936.00
2023-03-30T07:13:57.714Z,14432.00
2023-03-30T07:14:57.679Z,14324.00
2023-03-30T07:15:57.691Z,14696.00
2023-03-30T07:16:57.033Z,14348.00
2023-03-30T07:17:57.675Z,13648.00
2023-03-30T07:18:57.596Z,13268.00
2023-03-30T07:19:57.607Z,15780.00
2023-03-30T07:20:56.900Z,19072.00
2023-03-30T07:21:57.612Z,24608.00
2023-03-30T07:22:56.114Z,25600.00
2023-03-30T07:23:56.817Z,19616.00
2023-03-30T07:24:56.842Z,29408.00
2023-03-30T07:25:56.799Z,15392.00
2023-03-30T07:26:57.690Z,13464.00
2023-03-30T07:27:56.307Z,11204.00
2023-03-30T07:28:56.735Z,12240.00
2023-03-30T07:30:02.561Z,14208.00
2023-03-30T07:30:57.760Z,33600.00
2023-03-30T07:31:56.823Z,28320.00
2023-03-30T07:32:58.709Z,26176.00
2023-03-30T07:33:56.690Z,19872.00
2023-03-30T07:34:56.723Z,33920.00
2023-03-30T07:35:56.757Z,33536.00
2023-03-30T07:36:55.936Z,38752.00
2023-03-30T07:38:02.804Z,30464.00
2023-03-30T07:38:57.597Z,25536.00
2023-03-30T07:39:56.688Z,19680.00
2023-03-30T07:40:56.660Z,23008.00
2023-03-30T07:41:56.645Z,25568.00
2023-03-30T07:42:56.677Z,22368.00
2023-03-30T07:43:56.529Z,17536.00
2023-03-30T07:44:56.093Z,18144.00
2023-03-30T07:45:56.577Z,20800.00
2023-03-30T07:46:55.776Z,28416.00
2023-03-30T07:47:56.512Z,31520.00
2023-03-30T07:48:56.467Z,38624.00
2023-03-30T07:49:56.467Z,38304.00
2023-03-30T07:50:56.492Z,40800.00
2023-03-30T07:51:57.137Z,28608.00
2023-03-30T07:52:56.419Z,18368.00
2023-03-30T07:53:56.393Z,16704.00
2023-03-30T07:54:56.114Z,14712.00
2023-03-30T07:55:56.129Z,14412.00
2023-03-30T07:56:57.083Z,12720.00
2023-03-30T07:57:56.122Z,11336.00
2023-03-30T07:58:56.521Z,10120.00
2023-03-30T07:59:56.115Z,8924.00
2023-03-30T08:00:56.037Z,8576.00
2023-03-30T08:01:56.114Z,7268.00
2023-03-30T08:02:56.202Z,8148.00
2023-03-30T08:03:56.381Z,8840.00
2023-03-30T08:04:57.284Z,8740.00
2023-03-30T08:05:56.120Z,8072.00
2023-03-30T08:06:56.282Z,7760.00
2023-03-30T08:07:56.215Z,7896.00
2023-03-30T08:08:56.117Z,11032.00
2023-03-30T08:09:56.167Z,17312.00
2023-03-30T08:10:55.464Z,21184.00
2023-03-30T08:11:56.156Z,19840.00
2023-03-30T08:12:56.154Z,13840.00
2023-03-30T08:13:56.125Z,11180.00
2023-03-30T08:14:55.396Z,9336.00
2023-03-30T08:15:56.145Z,11296.00
2023-03-30T08:16:55.418Z,15920.00
2023-03-30T08:17:56.104Z,19008.00
2023-03-30T08:18:56.076Z,18560.00
2023-03-30T08:19:56.844Z,14020.00
2023-03-30T08:20:56.074Z,9884.00
2023-03-30T08:21:55.431Z,10004.00
2023-03-30T08:22:56.240Z,12164.00
2023-03-30T08:23:56.660Z,9796.00
2023-03-30T08:24:55.959Z,5596.00
2023-03-30T08:25:55.970Z,4532.00
2023-03-30T08:26:56.011Z,4488.00
2023-03-30T08:27:55.938Z,4700.00
2023-03-30T08:28:55.927Z,4484.00
2023-03-30T08:29:55.905Z,3516.00
2023-03-30T08:30:55.909Z,3876.00
2023-03-30T08:31:56.016Z,5032.00
2023-03-30T08:32:55.911Z,5796.00
2023-03-30T08:33:56.517Z,6168.00
2023-03-30T08:34:55.201Z,5908.00
2023-03-30T08:35:55.892Z,5624.00
2023-03-30T08:36:56.534Z,6056.00
2023-03-30T08:37:55.796Z,6160.00
2023-03-30T08:38:55.798Z,6968.00
2023-03-30T08:39:56.477Z,8064.00
2023-03-30T08:40:55.800Z,9236.00
2023-03-30T08:41:55.747Z,9948.00
2023-03-30T08:42:56.945Z,10972.00
2023-03-30T08:43:55.721Z,10904.00
2023-03-30T08:44:55.702Z,11032.00
2023-03-30T08:45:55.762Z,9724.00
2023-03-30T08:46:55.681Z,8184.00
2023-03-30T08:47:55.763Z,8052.00
2023-03-30T08:48:55.645Z,8652.00
2023-03-30T08:49:55.612Z,9868.00
2023-03-30T08:50:55.254Z,11124.00
2023-03-30T08:51:55.607Z,12096.00
2023-03-30T08:52:55.700Z,13524.00
2023-03-30T08:53:55.597Z,14976.00
2023-03-30T08:54:57.045Z,15760.00
2023-03-30T08:55:55.554Z,16896.00
2023-03-30T08:56:55.616Z,17824.00
2023-03-30T08:57:55.546Z,19712.00
2023-03-30T08:58:55.515Z,19872.00
2023-03-30T08:59:55.481Z,20032.00
2023-03-30T09:00:55.485Z,19680.00
2023-03-30T09:01:55.512Z,15840.00
2023-03-30T09:02:55.530Z,12436.00
2023-03-30T09:03:54.993Z,10636.00
2023-03-30T09:04:55.409Z,10316.00
2023-03-30T09:05:55.427Z,10312.00
2023-03-30T09:06:56.074Z,11136.00
2023-03-30T09:07:56.065Z,12300.00
2023-03-30T09:08:55.363Z,13348.00
2023-03-30T09:09:55.126Z,13676.00
2023-03-30T09:10:55.347Z,13848.00
2023-03-30T09:11:56.005Z,13296.00
2023-03-30T09:12:54.901Z,13920.00
2023-03-30T09:13:55.340Z,15240.00
2023-03-30T09:14:55.179Z,17248.00
2023-03-30T09:15:55.191Z,18944.00
2023-03-30T09:16:55.326Z,18944.00
2023-03-30T09:17:55.248Z,18528.00
2023-03-30T09:18:55.279Z,18240.00
2023-03-30T09:19:55.198Z,18464.00
2023-03-30T09:20:54.557Z,18912.00
2023-03-30T09:21:57.103Z,21440.00
2023-03-30T09:22:55.185Z,34240.00
2023-03-30T09:23:55.889Z,28608.00
2023-03-30T09:24:55.887Z,33408.00
2023-03-30T09:25:54.525Z,34720.00
2023-03-30T09:26:55.857Z,35936.00
2023-03-30T09:27:55.826Z,31168.00
2023-03-30T09:28:55.811Z,29472.00
2023-03-30T09:29:55.816Z,27680.00
2023-03-30T09:30:55.787Z,25600.00
2023-03-30T09:31:55.920Z,24128.00
2023-03-30T09:32:55.776Z,22272.00
2023-03-30T09:33:55.113Z,21504.00
2023-03-30T09:34:58.448Z,23328.00
2023-03-30T09:35:55.748Z,25984.00
2023-03-30T09:36:55.003Z,27200.00
2023-03-30T09:37:56.281Z,31488.00
2023-03-30T09:38:55.690Z,30656.00
2023-03-30T09:39:55.735Z,33504.00
2023-03-30T09:40:55.714Z,33472.00
2023-03-30T09:41:54.916Z,28992.00
2023-03-30T09:42:54.906Z,28960.00
2023-03-30T09:43:55.620Z,29280.00
2023-03-30T09:44:54.854Z,36096.00
2023-03-30T09:45:54.886Z,33760.00
2023-03-30T09:46:54.882Z,35392.00
2023-03-30T09:47:54.882Z,61568.00
2023-03-30T09:48:54.818Z,68192.00
2023-03-30T09:49:54.777Z,79520.00
2023-03-30T09:50:54.811Z,38752.00
2023-03-30T09:51:54.779Z,67104.00
2023-03-30T09:52:54.228Z,35808.00
2023-03-30T09:53:54.754Z,42720.00
2023-03-30T09:54:55.023Z,46592.00
2023-03-30T09:55:54.716Z,39776.00
2023-03-30T09:56:54.788Z,39104.00
2023-03-30T09:57:54.685Z,34880.00
2023-03-30T09:58:55.365Z,62560.00
2023-03-30T09:59:54.669Z,79392.00
2023-03-30T10:00:54.646Z,91968.00
2023-03-30T10:01:54.712Z,53664.00
2023-03-30T10:02:54.697Z,98272.00
2023-03-30T10:03:54.791Z,94560.00
2023-03-30T10:04:54.629Z,77184.00
2023-03-30T10:05:54.594Z,52288.00
2023-03-30T10:06:54.617Z,44384.00
2023-03-30T10:07:54.559Z,37376.00
2023-03-30T10:08:54.550Z,32320.00
2023-03-30T10:09:54.545Z,31904.00
2023-03-30T10:10:54.509Z,91296.00
2023-03-30T10:11:54.465Z,93248.00
2023-03-30T10:12:55.160Z,55904.00
2023-03-30T10:13:54.215Z,88096.00
2023-03-30T10:14:54.236Z,43456.00
2023-03-30T10:15:54.264Z,42368.00
2023-03-30T10:16:54.255Z,37568.00
2023-03-30T10:17:53.951Z,61152.00
2023-03-30T10:18:54.401Z,56160.00
2023-03-30T10:20:03.565Z,49248.00
2023-03-30T10:20:55.372Z,79040.00
2023-03-30T10:21:54.324Z,35456.00
2023-03-30T10:22:55.084Z,32800.00
2023-03-30T10:23:54.240Z,35136.00
2023-03-30T10:24:54.287Z,25632.00
2023-03-30T10:25:54.312Z,28640.00
2023-03-30T10:26:54.408Z,50560.00
2023-03-30T10:27:54.254Z,74656.00
2023-03-30T10:28:54.947Z,51712.00
2023-03-30T10:29:53.556Z,52448.00
2023-03-30T10:30:54.289Z,50720.00
2023-03-30T10:31:53.625Z,30400.00
2023-03-30T10:32:53.585Z,27072.00
2023-03-30T10:33:54.196Z,38848.00
2023-03-30T10:34:54.200Z,84736.00
2023-03-30T10:35:54.166Z,93216.00
2023-03-30T10:36:55.142Z,77184.00
2023-03-30T10:37:54.130Z,27808.00
2023-03-30T10:38:54.120Z,42976.00
2023-03-30T10:39:54.428Z,65088.00
2023-03-30T10:40:54.111Z,63392.00
2023-03-30T10:41:54.093Z,86432.00
2023-03-30T10:42:54.042Z,87104.00
2023-03-30T10:43:54.075Z,76384.00
2023-03-30T10:44:54.050Z,85600.00
2023-03-30T10:45:54.022Z,89088.00
2023-03-30T10:46:53.360Z,94496.00
2023-03-30T10:47:54.045Z,88960.00
2023-03-30T10:48:53.970Z,32704.00
2023-03-30T10:49:53.236Z,82656.00
2023-03-30T10:50:53.974Z,90720.00
2023-03-30T10:51:53.942Z,93472.00
2023-03-30T10:52:59.005Z,93248.00
2023-03-30T10:53:55.436Z,30912.00
2023-03-30T10:54:53.906Z,98752.00
2023-03-30T10:55:53.953Z,96672.00
2023-03-30T10:56:53.904Z,31008.00
2023-03-30T10:57:53.867Z,28256.00
2023-03-30T10:58:53.832Z,29376.00
2023-03-30T10:59:53.831Z,25952.00
2023-03-30T11:00:53.849Z,19232.00
2023-03-30T11:01:53.822Z,17728.00
2023-03-30T11:02:53.894Z,26272.00
2023-03-30T11:03:53.889Z,112832.00
2023-03-30T11:04:53.823Z,36000.00
2023-03-30T11:05:53.287Z,92288.00
2023-03-30T11:06:53.755Z,25600.00
2023-03-30T11:07:53.736Z,95648.00
2023-03-30T11:08:53.715Z,76864.00
2023-03-30T11:09:54.495Z,89472.00
2023-03-30T11:10:53.690Z,23040.00
2023-03-30T11:11:54.409Z,70688.00
2023-03-30T11:12:53.650Z,33952.00
2023-03-30T11:13:53.636Z,26400.00
2023-03-30T11:14:53.637Z,37568.00
2023-03-30T11:15:54.313Z,50912.00
2023-03-30T11:16:54.039Z,24864.00
2023-03-30T11:17:53.668Z,86752.00
2023-03-30T11:18:53.619Z,32256.00
2023-03-30T11:19:52.961Z,57920.00
2023-03-30T11:20:53.549Z,96032.00
2023-03-30T11:21:52.997Z,92128.00
2023-03-30T11:22:53.524Z,97536.00
2023-03-30T11:23:54.187Z,37344.00
2023-03-30T11:24:53.500Z,38048.00
2023-03-30T11:25:54.145Z,33312.00
2023-03-30T11:26:53.470Z,21504.00
2023-03-30T11:27:55.019Z,20704.00
2023-03-30T11:28:53.438Z,23680.00
2023-03-30T11:29:53.226Z,21184.00
2023-03-30T11:30:54.129Z,22944.00
2023-03-30T11:31:53.510Z,26816.00
2023-03-30T11:32:53.479Z,31104.00
2023-03-30T11:33:55.009Z,25728.00
2023-03-30T11:34:53.385Z,24224.00
2023-03-30T11:35:53.324Z,25344.00
2023-03-30T11:36:53.328Z,26688.00
2023-03-30T11:37:53.296Z,29184.00
2023-03-30T11:38:54.061Z,109824.00
2023-03-30T11:39:53.321Z,103360.00
2023-03-30T11:40:53.999Z,11908.00
2023-03-30T11:41:53.941Z,8820.00
2023-03-30T11:42:53.966Z,8728.00
2023-03-30T11:43:53.543Z,10656.00
2023-03-30T11:44:53.966Z,13572.00
2023-03-30T11:45:52.565Z,16760.00
2023-03-30T11:46:54.191Z,13644.00
2023-03-30T11:47:54.582Z,12952.00
2023-03-30T11:48:53.902Z,12268.00
2023-03-30T11:49:53.893Z,84384.00
2023-03-30T11:50:53.864Z,84448.00
2023-03-30T11:51:52.748Z,83584.00
2023-03-30T11:52:53.902Z,80672.00
2023-03-30T11:53:53.824Z,78688.00
2023-03-30T11:55:02.217Z,78112.00
2023-03-30T11:55:54.077Z,80288.00
2023-03-30T11:56:53.348Z,64448.00
2023-03-30T11:57:53.059Z,83904.00
2023-03-30T11:58:53.003Z,84672.00
2023-03-30T11:59:53.020Z,84352.00
2023-03-30T12:00:53.031Z,83904.00
2023-03-30T12:01:52.489Z,52448.00
2023-03-30T12:02:53.063Z,82816.00
2023-03-30T12:03:53.343Z,83520.00
2023-03-30T12:04:53.020Z,82336.00
2023-03-30T12:05:52.932Z,84352.00
2023-03-30T12:06:52.927Z,86272.00
2023-03-30T12:07:52.929Z,89504.00
2023-03-30T12:08:52.908Z,92448.00
2023-03-30T12:09:53.657Z,95968.00
2023-03-30T12:10:52.864Z,78560.00
2023-03-30T12:11:52.870Z,30208.00
2023-03-30T12:12:52.848Z,32896.00
2023-03-30T12:13:52.828Z,72928.00
2023-03-30T12:14:52.779Z,69536.00
2023-03-30T12:15:52.870Z,31488.00
2023-03-30T12:16:52.899Z,49696.00
2023-03-30T12:17:52.407Z,44288.00
2023-03-30T12:18:52.757Z,37888.00
2023-03-30T12:19:56.469Z,52960.00
2023-03-30T12:20:52.755Z,81088.00
2023-03-30T12:21:52.723Z,98048.00
2023-03-30T12:22:52.708Z,94432.00
2023-03-30T12:23:52.336Z,92352.00
2023-03-30T12:24:52.641Z,91648.00
2023-03-30T12:25:52.710Z,89984.00
2023-03-30T12:27:04.653Z,88352.00
2023-03-30T12:27:53.622Z,87904.00